Conconully, Washington
Current Conditions -  °F | °C
As of 11:53 PM on Thursday 30 Oct 2014 (Local Time) from KOMK Reporting Station
Light Rain Light Rain  
Wind Chill: 48°   Ceiling: 7000
Heat Index: 48°   Visibility: 6mi
Dew Point: 47°   Wind: 0mph
Humidity: 96%   Direction: NA
Pressure: 29.81"   Gusts: NA
Location:  48.56°N, 119.75°W
Report Text: KOMK 310653Z AUTO 00000KT 6SM -RA BR FEW003 OVC070 09/08 A2981 RMK AO2 SLP098 P0003 T00890083
Loading
Personal Weather Stations






























Interactive Weather Map
Tropical Storm Tracking
New forecast layout! Learn more

10-Day Weather Forecast

Advertisements
Track Severe Weather on mobile